Hoppa till innehåll

METAR väder och rapporter - ESGG

Nedan listas information från vald flygplats. Andra METARs finns längre ned på sidan. Kontakta oss om någon saknas eller skriv in egen ICAO-kod.

Andra intressanta METARs

Klicka på önskad rubrik nedan för att visa nuvarande väder för den platsen.

Avstånd från stationen: NO 27kmESGG - Göteborg (Landvetter)
Uppdaterad: 2023-02-02 07:50
 Vind från N
Vind: N 13 km/h
Temperatur: -6°C
Vindavkylning: -12°C
Daggpunkt: -7°C
Luftfuktighet: 93%
Barometer: 1010 hPa
Summering: Klart
Sikt: mer än 10 km
2023/02/02 06:50 ESGG 020650Z 35007KT CAVOK M06/M07 Q1010
Klart
Klart
  Visa detaljer för Göteborg (Landvetter)
Avstånd från stationen: N 28kmESGP - Göteborg (Säve)
Uppdaterad: 2023-02-02 07:50
 Vind från calm
Vind: Vindstilla
Temperatur: -5°C
Daggpunkt: -7°C
Luftfuktighet: 86%
Barometer: 1012 hPa
Moln: Klart
Sikt: 10 km
2023/02/02 06:50 ESGP 020650Z AUTO 00000KT 9999 NCD M05/M07 Q1012
Klart
Klart
  Visa detaljer för Göteborg (Säve)
Avstånd från stationen: NO 419kmESSA - Stockholm (Arlanda)
Uppdaterad: 2023-02-02 07:50
 Vind från NV
Vind: NV 15 km/h
Temperatur: -4°C
Vindavkylning: -9°C
Daggpunkt: -6°C
Luftfuktighet: 86%
Barometer: 1007 hPa
Moln: Genommulet
Sikt: 10 km
Molninformation: Övervägande molnigt 335 m
Genommulet 1036 m
2023/02/02 06:50 ESSA 020650Z 32008KT 9999 BKN011 OVC034 M04/M06 Q1007 NOSIG
Genommulet
Genommulet
  Visa detaljer för Stockholm (Arlanda)
Avstånd från stationen: ONO 404kmESSB - Stockholm (Bromma)
Uppdaterad: 2023-02-02 07:50
 Vind från NV
Vind: NV 15 km/h
Temperatur: -3°C
Vindavkylning: -8°C
Daggpunkt: -5°C
Luftfuktighet: 86%
Barometer: 1007 hPa
Moln: Övervägande molnigt
Sikt: 10 km
Molninformation: Övervägande molnigt 1036 m
2023/02/02 06:50 ESSB 020650Z 32008KT 9999 BKN034 M03/M05 Q1007
Övervägande molnigt
Övervägande molnigt
  Visa detaljer för Stockholm (Bromma)
Avstånd från stationen: ONO 323kmESKN - Stockholm (Skavsta)
Uppdaterad: 2023-02-02 07:50
 Vind från NV
Vind: NV 13 km/h
Temperatur: -3°C
Vindavkylning: -7°C
Daggpunkt: -5°C
Luftfuktighet: 86%
Barometer: 1008 hPa
Moln: Övervägande molnigt
Sikt: 10 km
Molninformation: Delvis molnigt 366 m
Övervägande molnigt 640 m
2023/02/02 06:50 ESKN 020650Z 32007KT 280V340 9999 SCT012 BKN021 M03/M05 Q1008
Övervägande molnigt
Övervägande molnigt
  Visa detaljer för Stockholm (Skavsta)
Avstånd från stationen: SSO 238kmESMS - Malmö flygplats (Sturup)
Uppdaterad: 2023-02-02 07:50
 Vind från NV
Vind: NV 26 km/h
Temperatur: 1°C
Vindavkylning: -4°C
Daggpunkt: -1°C
Luftfuktighet: 87%
Barometer: 1009 hPa
Moln: Övervägande molnigt
Sikt: 10 km
Molninformation: Delvis molnigt 792 m
Övervägande molnigt 914 m
2023/02/02 06:50 ESMS 020650Z 32014KT 9999 SCT026 BKN030 01/M01 Q1009
Övervägande molnigt
Övervägande molnigt
  Visa detaljer för Malmö flygplats (Sturup)
Avstånd från stationen: O 382kmESSV - Visby flygplats
Uppdaterad: 2023-02-02 07:50
 Vind från N
Vind: N 33 km/h
Temperatur: 0°C
Vindavkylning: -7°C
Daggpunkt: -1°C
Luftfuktighet: 93%
Barometer: 1005 hPa
Summering: Snow Grains
Moln: Övervägande molnigt
Sikt: 10 km
Molninformation: Övervägande molnigt 274 m
2023/02/02 06:50 ESSV 020650Z 35018KT 9999 SG BKN009 00/M01 Q1005
Snow grains, Övervägande molnigt
Snow grains
Övervägande molnigt
  Visa detaljer för Visby flygplats
Avstånd från stationen: NNO 92kmESGT - Trollhättan
Uppdaterad: 2023-02-02 07:50
 Vind från NV
Vind: NV 13 km/h
Temperatur: -6°C
Vindavkylning: -12°C
Daggpunkt: -8°C
Luftfuktighet: 86%
Barometer: 1012 hPa
Summering: Klart
Sikt: mer än 10 km
2023/02/02 06:50 ESGT 020650Z 32007KT CAVOK M06/M08 Q1012
Klart
Klart
  Visa detaljer för Trollhättan
Avstånd från stationen: ONO 129kmESGJ - Jönköpings flygplats
Uppdaterad: 2023-02-02 07:50
 Vind från NNV
Vind: NNV 15 km/h
Temperatur: -3°C
Vindavkylning: -8°C
Daggpunkt: -4°C
Luftfuktighet: 93%
Barometer: 1008 hPa
Moln: Övervägande molnigt
Sikt: 10 km
Molninformation: Övervägande molnigt 305 m
2023/02/02 06:50 ESGJ 020650Z 34008KT 9999 BKN010 M03/M04 Q1008
Övervägande molnigt
Övervägande molnigt
  Visa detaljer för Jönköpings flygplats
Avstånd från stationen: NNO 229kmESOK - Karlstad
Uppdaterad: 2023-02-02 07:50
 Vind från NNV
Vind: NNV 17 km/h
Temperatur: -8°C
Vindavkylning: -14°C
Daggpunkt: -10°C
Luftfuktighet: 86%
Barometer: 1010 hPa
Summering: Klart
Sikt: mer än 10 km
2023/02/02 06:50 ESOK 020650Z 34009KT CAVOK M08/M10 Q1010
Klart
Klart
  Visa detaljer för Karlstad
Avstånd från stationen: N 643kmESNZ - Östersund (Frösön)
Uppdaterad: 2023-02-02 07:50
 Vind från SSV
Vind: SSV 4 km/h
Temperatur: -12°C
Daggpunkt: -13°C
Luftfuktighet: 92%
Barometer: 1007 hPa
Moln: Genommulet
Sikt: 10 km
Molninformation: Genommulet 457 m
2023/02/02 06:50 ESNZ 020650Z 21002KT 9999 OVC015 M12/M13 Q1007
Genommulet
Genommulet
  Visa detaljer för Östersund (Frösön)
Avstånd från stationen: SSO 216kmEKCH - Köpenhamn (Kastrup)
Uppdaterad: 2023-02-02 07:50
 Vind från NNV
Vind: NNV 26 km/h
Temperatur: 2°C
Vindavkylning: -3°C
Daggpunkt: -2°C
Luftfuktighet: 75%
Barometer: 1011 hPa
Moln: Genommulet
Sikt: 10 km
Molninformation: Genommulet 701 m
2023/02/02 06:50 EKCH 020650Z AUTO 34014KT 9999 OVC023/// 02/M02 Q1011 NOSIG
Genommulet
Genommulet
  Visa detaljer för Köpenhamn (Kastrup)
Avstånd från stationen: SV 263kmEKBI - Billund Airport
Uppdaterad: 2023-02-02 07:50
 Vind från NV
Vind: NV 6 km/h
Temperatur: -1°C
Daggpunkt: -2°C
Luftfuktighet: 93%
Barometer: 1013 hPa
Moln: Klart
Sikt: 10 km
2023/02/02 06:50 EKBI 020650Z AUTO 31003KT 9999 NCD M01/M02 Q1013
Klart
Klart
  Visa detaljer för Billund Airport
Avstånd från stationen: N 302kmENGM - Oslo (Gardermoen)
Uppdaterad: 2023-02-02 07:50
 Vind från O
Vind: O 2 km/h
Temperatur: -13°C
Daggpunkt: -14°C
Luftfuktighet: 92%
Barometer: 1011 hPa
Summering: Klart
Sikt: mer än 10 km
2023/02/02 06:50 ENGM 020650Z 08001KT CAVOK M13/M14 Q1011 NOSIG
Klart
Klart
  Visa detaljer för Oslo (Gardermoen)
Avstånd från stationen: NO 540kmEFMA - Mariehamn / Åland
Uppdaterad: 2023-02-02 07:50
 Vind från N
Vind: N 7 km/h
Temperatur: -1°C
Vindavkylning: -4°C
Daggpunkt: -2°C
Luftfuktighet: 93%
Barometer: 1006 hPa
Summering: Light freezing, Regn, Snö
Moln: Genommulet
Sikt: 10 km
Molninformation: Genommulet 305 m
2023/02/02 06:50 EFMA 020650Z AUTO 36004KT 9999 -FZRASN OVC010/// M01/M02 Q1006
Light freezing, Regn, Snö, Genommulet
Light freezing
Regn
Snö
Genommulet
  Visa detaljer för Mariehamn / Åland
Avstånd från stationen: S 558kmEDDT - Berlin (Tegel), Germany
Uppdaterad: 2020-11-09 07:50
Ej aktuell
 Vind från O
Vind: O 11 km/h
Temperatur: 6°C
Vindavkylning: 4°C
Daggpunkt: 5°C
Luftfuktighet: 93%
Barometer: 1027 hPa
Summering: Dimmigt
Moln: Genommulet
Sikt: 3 km
Molninformation: Genommulet 91 m
2020/11/09 06:50 EDDT 090650Z 09006KT 050V120 3000 BR OVC003 06/05 Q1027
Dimmigt, Genommulet
Dimmigt
Genommulet
  Visa detaljer för Berlin (Tegel), Germany
Avstånd från stationen: SV 737kmEHAM - Amsterdam (Schiphol)
Uppdaterad: 2023-02-02 07:55
 Vind från V
Vind: V 33 km/h
Temperatur: 8°C
Vindavkylning: 3°C
Daggpunkt: 6°C
Luftfuktighet: 87%
Barometer: 1021 hPa
Moln: Övervägande molnigt
Sikt: 10 km
Molninformation: Några få moln 274 m
Övervägande molnigt 549 m
Övervägande molnigt 914 m
2023/02/02 06:55 EHAM 020655Z 27018KT 9999 FEW009 BKN018 BKN030 08/06 Q1021 BECMG BKN021
Övervägande molnigt
Övervägande molnigt
  Visa detaljer för Amsterdam (Schiphol)
Avstånd från stationen: ONO 808kmEFHK - Helsingfors (Vantaa)
Uppdaterad: 2023-02-02 07:50
 Vind från NNV
Vind: NNV 13 km/h
Temperatur: -3°C
Vindavkylning: -7°C
Daggpunkt: -5°C
Luftfuktighet: 86%
Barometer: 1002 hPa
Summering: Klart
Sikt: mer än 10 km
2023/02/02 06:50 EFHK 020650Z 34007KT CAVOK M03/M05 Q1002 NOSIG
Klart
Klart
  Visa detaljer för Helsingfors (Vantaa)
Avstånd från stationen: SSV 537kmEDDW - Bremen
Uppdaterad: 2023-02-02 07:50
 Vind från V
Vind: V 20 km/h
Temperatur: 4°C
Vindavkylning: -1°C
Daggpunkt: 3°C
Luftfuktighet: 93%
Barometer: 1017 hPa
Moln: Några få moln
Sikt: 10 km
Molninformation: Några få moln 884 m
2023/02/02 06:50 EDDW 020650Z AUTO 28011KT 9999 FEW029 04/03 Q1017 NOSIG
Några få moln
Några få moln
  Visa detaljer för Bremen
Avstånd från stationen: SSV 861kmEDDF - Frankfurt am Main
Uppdaterad: 2023-02-02 07:50
 Vind från VSV
Vind: VSV 22 km/h
Temperatur: 8°C
Vindavkylning: 4°C
Daggpunkt: 4°C
Luftfuktighet: 76%
Barometer: 1022 hPa
Moln: Genommulet
Sikt: 10 km
Molninformation: Övervägande molnigt 701 m
Genommulet 853 m
2023/02/02 06:50 EDDF 020650Z AUTO 24012KT 9999 BKN023 OVC028 08/04 Q1022
Genommulet
Genommulet
  Visa detaljer för Frankfurt am Main
Avstånd från stationen: SV 880kmEBBR - Bryssel international
Uppdaterad: 2023-02-02 07:50
 Vind från VSV
Vind: VSV 22 km/h
Temperatur: 7°C
Vindavkylning: 4°C
Daggpunkt: 5°C
Luftfuktighet: 87%
Barometer: 1025 hPa
Moln: Övervägande molnigt
Sikt: 10 km
Molninformation: Några få moln 610 m
Övervägande molnigt 1372 m
2023/02/02 06:50 EBBR 020650Z 25012KT 9999 FEW020 BKN045 07/05 Q1025 NOSIG
Övervägande molnigt
Övervägande molnigt
  Visa detaljer för Bryssel international
Avstånd från stationen: SV 738kmEHAM - Amsterdam (Schiphol)
Uppdaterad: 2023-02-02 07:55
 Vind från V
Vind: V 33 km/h
Temperatur: 8°C
Vindavkylning: 3°C
Daggpunkt: 6°C
Luftfuktighet: 87%
Barometer: 1021 hPa
Moln: Övervägande molnigt
Sikt: 10 km
Molninformation: Några få moln 274 m
Övervägande molnigt 549 m
Övervägande molnigt 914 m
2023/02/02 06:55 EHAM 020655Z 27018KT 9999 FEW009 BKN018 BKN030 08/06 Q1021 BECMG BKN021
Övervägande molnigt
Övervägande molnigt
  Visa detaljer för Amsterdam (Schiphol)
Avstånd från stationen: SV 1044kmEGLL - London (Heathrow)
Uppdaterad: 2023-02-02 07:50
 Vind från VSV
Vind: VSV 15 km/h
Temperatur: 7°C
Vindavkylning: 4°C
Daggpunkt: 4°C
Luftfuktighet: 81%
Barometer: 1027 hPa
Moln: Klart
Sikt: 10 km
2023/02/02 06:50 EGLL 020650Z AUTO 25008KT 9999 NCD 07/04 Q1027 NOSIG
Klart
Klart
  Visa detaljer för London (Heathrow)
Avstånd från stationen: SV 1132kmLFPG - Paris (Charles de Gaulle)
Uppdaterad: 2023-02-02 08:00
 Vind från SV
Vind: SV 15 km/h
Temperatur: 6°C
Vindavkylning: 3°C
Daggpunkt: 3°C
Luftfuktighet: 81%
Barometer: 1030 hPa
Moln: Genommulet
Sikt: 10 km
Molninformation: Genommulet 1067 m
2023/02/02 07:00 LFPG 020700Z 23008KT 9999 OVC035 06/03 Q1030 NOSIG
Genommulet
Genommulet
  Visa detaljer för Paris (Charles de Gaulle)
Avstånd från stationen: SSV 1142kmLSZH - Zürich Airport
Uppdaterad: 2023-02-02 07:50
 Vind från V
Vind: V 13 km/h
Temperatur: 4°C
Vindavkylning: 1°C
Daggpunkt: 0°C
Luftfuktighet: 75%
Barometer: 1029 hPa
Moln: Övervägande molnigt
Sikt: 10 km
Molninformation: Några få moln 762 m
Delvis molnigt 914 m
Övervägande molnigt 1676 m
2023/02/02 06:50 LSZH 020650Z 26007KT 9999 FEW025 SCT030 BKN055 04/M00 Q1029 NOSIG
Övervägande molnigt
Övervägande molnigt
  Visa detaljer för Zürich Airport
Avstånd från stationen: S 1749kmLIRF - Rome Airport (Fiumicino - Leonardo da Vinci)
Uppdaterad: 2023-02-02 07:50
 Vind från ONO
Vind: ONO 9 km/h
Temperatur: 4°C
Vindavkylning: 2°C
Daggpunkt: 3°C
Luftfuktighet: 93%
Barometer: 1023 hPa
Moln: Delvis molnigt
Sikt: 10 km
Molninformation: Delvis molnigt 1067 m
2023/02/02 06:50 LIRF 020650Z 07005KT 9999 SCT035 04/03 Q1023 NOSIG
Delvis molnigt
Delvis molnigt
  Visa detaljer för Rome Airport (Fiumicino - Leonardo da Vinci)
Avstånd från stationen: SO 2679kmLTAI - Antalya
Uppdaterad: 2023-02-02 06:50
Ej aktuell
 Vind från NV
Vind: NV 15 km/h
Temperatur: 6°C
Vindavkylning: 3°C
Daggpunkt: -7°C
Luftfuktighet: 39%
Barometer: 1019 hPa
Summering: Klart
Sikt: mer än 10 km
2023/02/02 05:50 LTAI 020550Z 31008KT 280V340 CAVOK 06/M07 Q1019 NOSIG
Klart
Klart
  Visa detaljer för Antalya
Avstånd från stationen: VSV 6074kmKJFK - New Your (JFK)
Uppdaterad: 2023-02-02 07:51
 Vind från N
Vind: N 13 km/h
Temperatur: -2°C
Vindavkylning: -7°C
Daggpunkt: -12°C
Luftfuktighet: 47%
Barometer: 1025.4 hPa
Moln: Övervägande molnigt
Sikt: 16 km
Molninformation: Övervägande molnigt 7620 m
2023/02/02 06:51 KJFK 020651Z 36007KT 10SM BKN250 M02/M12 A3028 RMK AO2 SLP253 T10221117
Övervägande molnigt
Övervägande molnigt
  Visa detaljer för New Your (JFK)
Avstånd från stationen: VSV 8848kmKLAX - Los Angeles International Airport
Uppdaterad: 2023-02-02 07:53
 Vind från NO
Vind: NO 9 km/h
Temperatur: 11°C
Daggpunkt: 4°C
Luftfuktighet: 62%
Barometer: 1023.4 hPa
Moln: Klart
Sikt: 16 km
2023/02/02 06:53 KLAX 020653Z 05005KT 10SM CLR 11/04 A3022 RMK AO2 SLP231 T01110044 $
Klart
Klart
  Visa detaljer för Los Angeles International Airport
Avstånd från stationen: SO 4968kmOMDB - Dubai International Airport
Uppdaterad: 2023-02-02 07:00
 Vind från SSO
Vind: SSO 17 km/h
Temperatur: 23°C
Daggpunkt: 14°C
Luftfuktighet: 57%
Barometer: 1018 hPa
Summering: Klart
Sikt: mer än 10 km
2023/02/02 06:00 OMDB 020600Z 15009KT 110V170 CAVOK 23/14 Q1018 NOSIG
Klart
Klart
  Visa detaljer för Dubai International Airport
Avstånd från stationen: OSO 8570kmRJTT - Tokyo International Airport
Uppdaterad: 2023-02-02 08:00
 Vind från N
Vind: N 20 km/h
Temperatur: 9°C
Vindavkylning: 6°C
Daggpunkt: -8°C
Luftfuktighet: 29%
Barometer: 1017 hPa
Moln: Övervägande molnigt
Sikt: 10 km
Molninformation: Några få moln 914 m
Delvis molnigt 1524 m
Övervägande molnigt 2134 m
2023/02/02 07:00 RJTT 020700Z 01011KT 9999 FEW030 SCT050 BKN070 09/M08 Q1017 NOSIG
Övervägande molnigt
Övervägande molnigt
  Visa detaljer för Tokyo International Airport
Avstånd från stationen: OSO 7125kmZBAA - Peking (Beijing Capital)
Uppdaterad: 2023-02-02 08:00
 Vind från varierande
Vind: varierande 4 km/h
Temperatur: 1°C
Daggpunkt: -22°C
Luftfuktighet: 16%
Barometer: 1030 hPa
Summering: Klart
Sikt: mer än 10 km
2023/02/02 07:00 ZBAA 020700Z VRB01MPS CAVOK 01/M22 Q1030 NOSIG
Klart
Klart
  Visa detaljer för Peking (Beijing Capital)
VÄDER KURIOSA -  Weather TermsDew Point - A measure of atmospheric moisture. It is the temperature to which air must be cooled in order to reach saturation (assuming pressure and moisture content are constant).